sensor_id;sensor_type;location;lat;lon;timestamp;pressure;altitude;pressure_sealevel;temperature;humidity
10202;BME280;5143;42.584;23.164;2023-07-29T00:00:41;92519.88;;;14.26;100.00
10202;BME280;5143;42.584;23.164;2023-07-29T00:03:08;92518.84;;;14.29;100.00
10202;BME280;5143;42.584;23.164;2023-07-29T00:05:36;92525.84;;;14.30;100.00
10202;BME280;5143;42.584;23.164;2023-07-29T00:08:03;92526.66;;;14.19;100.00
10202;BME280;5143;42.584;23.164;2023-07-29T00:10:35;92538.13;;;14.18;100.00
10202;BME280;5143;42.584;23.164;2023-07-29T00:13:02;92528.41;;;14.17;100.00
10202;BME280;5143;42.584;23.164;2023-07-29T00:15:29;92518.91;;;14.18;100.00
10202;BME280;5143;42.584;23.164;2023-07-29T00:17:56;92525.72;;;14.06;100.00
10202;BME280;5143;42.584;23.164;2023-07-29T00:20:22;92528.19;;;14.04;100.00
10202;BME280;5143;42.584;23.164;2023-07-29T00:22:49;92494.34;;;13.85;100.00
10202;BME280;5143;42.584;23.164;2023-07-29T00:25:18;92516.78;;;13.94;100.00
10202;BME280;5143;42.584;23.164;2023-07-29T00:27:46;92517.75;;;13.97;100.00
10202;BME280;5143;42.584;23.164;2023-07-29T00:30:13;92504.28;;;13.93;100.00
10202;BME280;5143;42.584;23.164;2023-07-29T00:32:40;92500.31;;;13.94;100.00
10202;BME280;5143;42.584;23.164;2023-07-29T00:35:07;92505.28;;;13.96;100.00
10202;BME280;5143;42.584;23.164;2023-07-29T00:37:34;92503.28;;;13.96;100.00
10202;BME280;5143;42.584;23.164;2023-07-29T00:40:03;92513.78;;;13.92;100.00
10202;BME280;5143;42.584;23.164;2023-07-29T00:42:30;92512.06;;;13.89;100.00
10202;BME280;5143;42.584;23.164;2023-07-29T00:44:58;92500.34;;;13.83;100.00
10202;BME280;5143;42.584;23.164;2023-07-29T00:47:25;92503.06;;;13.89;100.00
10202;BME280;5143;42.584;23.164;2023-07-29T00:49:52;92506.31;;;13.82;100.00
10202;BME280;5143;42.584;23.164;2023-07-29T00:52:18;92509.06;;;13.87;100.00
10202;BME280;5143;42.584;23.164;2023-07-29T00:54:45;92508.81;;;13.85;100.00
10202;BME280;5143;42.584;23.164;2023-07-29T00:57:13;92504.34;;;13.82;100.00
10202;BME280;5143;42.584;23.164;2023-07-29T00:59:41;92512.34;;;13.80;100.00
10202;BME280;5143;42.584;23.164;2023-07-29T01:02:10;92505.59;;;13.81;100.00
10202;BME280;5143;42.584;23.164;2023-07-29T01:04:36;92500.38;;;13.78;100.00
10202;BME280;5143;42.584;23.164;2023-07-29T01:07:11;92501.63;;;13.77;100.00
10202;BME280;5143;42.584;23.164;2023-07-29T01:09:45;92496.44;;;13.68;100.00
10202;BME280;5143;42.584;23.164;2023-07-29T01:12:19;92491.94;;;13.70;100.00
10202;BME280;5143;42.584;23.164;2023-07-29T01:14:55;92497.88;;;13.74;100.00
10202;BME280;5143;42.584;23.164;2023-07-29T01:17:42;92496.41;;;13.73;100.00
10202;BME280;5143;42.584;23.164;2023-07-29T01:20:11;92492.19;;;13.67;100.00
10202;BME280;5143;42.584;23.164;2023-07-29T01:22:40;92497.16;;;13.63;100.00
10202;BME280;5143;42.584;23.164;2023-07-29T01:25:09;92493.41;;;13.66;100.00
10202;BME280;5143;42.584;23.164;2023-07-29T01:27:36;92499.69;;;13.55;100.00
10202;BME280;5143;42.584;23.164;2023-07-29T01:30:03;92492.75;;;13.48;100.00
10202;BME280;5143;42.584;23.164;2023-07-29T01:32:37;92494.75;;;13.42;100.00
10202;BME280;5143;42.584;23.164;2023-07-29T01:35:13;92511.44;;;13.44;100.00
10202;BME280;5143;42.584;23.164;2023-07-29T01:37:44;92500.72;;;13.41;100.00
10202;BME280;5143;42.584;23.164;2023-07-29T01:40:16;92503.22;;;13.44;100.00
10202;BME280;5143;42.584;23.164;2023-07-29T01:42:44;92505.97;;;13.39;100.00
10202;BME280;5143;42.584;23.164;2023-07-29T01:45:12;92503.97;;;13.34;100.00
10202;BME280;5143;42.584;23.164;2023-07-29T01:47:38;92495.53;;;13.32;100.00
10202;BME280;5143;42.584;23.164;2023-07-29T01:50:07;92496.00;;;13.36;100.00
10202;BME280;5143;42.584;23.164;2023-07-29T01:52:34;92488.78;;;13.27;100.00
10202;BME280;5143;42.584;23.164;2023-07-29T01:55:01;92500.25;;;13.31;100.00
10202;BME280;5143;42.584;23.164;2023-07-29T01:57:29;92499.00;;;13.27;100.00
10202;BME280;5143;42.584;23.164;2023-07-29T01:59:56;92507.72;;;13.25;100.00
10202;BME280;5143;42.584;23.164;2023-07-29T02:02:23;92498.28;;;13.26;100.00
10202;BME280;5143;42.584;23.164;2023-07-29T02:04:49;92501.75;;;13.21;100.00
10202;BME280;5143;42.584;23.164;2023-07-29T02:07:17;92503.00;;;13.26;100.00
10202;BME280;5143;42.584;23.164;2023-07-29T02:09:44;92505.97;;;13.28;100.00
10202;BME280;5143;42.584;23.164;2023-07-29T02:12:11;92506.97;;;13.25;100.00
10202;BME280;5143;42.584;23.164;2023-07-29T02:14:39;92507.97;;;13.22;100.00
10202;BME280;5143;42.584;23.164;2023-07-29T02:17:06;92503.75;;;13.21;100.00
10202;BME280;5143;42.584;23.164;2023-07-29T02:19:34;92500.75;;;13.08;100.00
10202;BME280;5143;42.584;23.164;2023-07-29T02:22:01;92498.78;;;13.08;100.00
10202;BME280;5143;42.584;23.164;2023-07-29T02:24:28;92505.00;;;13.09;100.00
10202;BME280;5143;42.584;23.164;2023-07-29T02:26:54;92507.72;;;13.03;100.00
10202;BME280;5143;42.584;23.164;2023-07-29T02:29:21;92506.22;;;13.02;100.00
10202;BME280;5143;42.584;23.164;2023-07-29T02:31:49;92503.25;;;13.00;100.00
10202;BME280;5143;42.584;23.164;2023-07-29T02:34:16;92504.75;;;13.01;100.00
10202;BME280;5143;42.584;23.164;2023-07-29T02:36:43;92505.22;;;13.05;100.00
10202;BME280;5143;42.584;23.164;2023-07-29T02:39:11;92506.22;;;13.02;100.00
10202;BME280;5143;42.584;23.164;2023-07-29T02:41:37;92503.75;;;13.04;100.00
10202;BME280;5143;42.584;23.164;2023-07-29T02:44:05;92502.25;;;13.03;100.00
10202;BME280;5143;42.584;23.164;2023-07-29T02:46:32;92505.97;;;13.06;100.00
10202;BME280;5143;42.584;23.164;2023-07-29T02:49:01;92510.69;;;13.05;100.00
10202;BME280;5143;42.584;23.164;2023-07-29T02:51:28;92506.97;;;12.97;100.00
10202;BME280;5143;42.584;23.164;2023-07-29T02:53:55;92508.97;;;12.96;100.00
10202;BME280;5143;42.584;23.164;2023-07-29T02:56:22;92510.72;;;12.99;100.00
10202;BME280;5143;42.584;23.164;2023-07-29T02:58:49;92514.19;;;12.78;100.00
10202;BME280;5143;42.584;23.164;2023-07-29T03:01:16;92518.44;;;12.84;100.00
10202;BME280;5143;42.584;23.164;2023-07-29T03:03:43;92526.41;;;12.88;100.00
10202;BME280;5143;42.584;23.164;2023-07-29T03:06:14;92514.19;;;12.89;100.00
10202;BME280;5143;42.584;23.164;2023-07-29T03:08:40;92525.66;;;12.93;100.00
10202;BME280;5143;42.584;23.164;2023-07-29T03:11:08;92505.22;;;12.83;100.00
10202;BME280;5143;42.584;23.164;2023-07-29T03:13:36;92514.19;;;12.89;100.00
10202;BME280;5143;42.584;23.164;2023-07-29T03:16:06;92507.50;;;12.84;100.00
10202;BME280;5143;42.584;23.164;2023-07-29T03:18:33;92510.22;;;12.79;100.00
10202;BME280;5143;42.584;23.164;2023-07-29T03:21:00;92513.44;;;12.83;100.00
10202;BME280;5143;42.584;23.164;2023-07-29T03:23:29;92515.72;;;12.90;100.00
10202;BME280;5143;42.584;23.164;2023-07-29T03:25:56;92511.47;;;12.89;100.00
10202;BME280;5143;42.584;23.164;2023-07-29T03:28:24;92515.72;;;12.90;100.00
10202;BME280;5143;42.584;23.164;2023-07-29T03:30:52;92514.19;;;12.78;100.00
10202;BME280;5143;42.584;23.164;2023-07-29T03:33:19;92519.69;;;12.72;100.00
10202;BME280;5143;42.584;23.164;2023-07-29T03:35:46;92504.25;;;12.75;100.00
10202;BME280;5143;42.584;23.164;2023-07-29T03:38:13;92502.75;;;12.79;100.00
10202;BME280;5143;42.584;23.164;2023-07-29T03:40:42;92512.97;;;12.95;100.00
10202;BME280;5143;42.584;23.164;2023-07-29T03:43:09;92512.22;;;12.95;100.00
10202;BME280;5143;42.584;23.164;2023-07-29T03:45:36;92507.25;;;12.99;100.00
10202;BME280;5143;42.584;23.164;2023-07-29T03:48:04;92514.47;;;13.08;100.00
10202;BME280;5143;42.584;23.164;2023-07-29T03:50:33;92515.22;;;13.14;100.00
10202;BME280;5143;42.584;23.164;2023-07-29T03:53:00;92508.97;;;13.19;100.00
10202;BME280;5143;42.584;23.164;2023-07-29T03:55:27;92511.22;;;13.20;100.00
10202;BME280;5143;42.584;23.164;2023-07-29T03:57:56;92519.44;;;13.37;100.00
10202;BME280;5143;42.584;23.164;2023-07-29T04:00:23;92519.19;;;13.40;100.00
10202;BME280;5143;42.584;23.164;2023-07-29T04:02:50;92519.19;;;13.40;100.00
10202;BME280;5143;42.584;23.164;2023-07-29T04:05:17;92525.38;;;13.52;100.00
10202;BME280;5143;42.584;23.164;2023-07-29T04:07:44;92526.13;;;13.52;100.00
10202;BME280;5143;42.584;23.164;2023-07-29T04:10:11;92510.19;;;13.51;100.00
10202;BME280;5143;42.584;23.164;2023-07-29T04:12:38;92514.66;;;13.59;100.00
10202;BME280;5143;42.584;23.164;2023-07-29T04:15:07;92528.13;;;13.52;100.00
10202;BME280;5143;42.584;23.164;2023-07-29T04:17:34;92526.84;;;13.64;100.00
10202;BME280;5143;42.584;23.164;2023-07-29T04:20:01;92523.88;;;13.62;100.00
10202;BME280;5143;42.584;23.164;2023-07-29T04:22:28;92525.84;;;13.67;100.00
10202;BME280;5143;42.584;23.164;2023-07-29T04:24:55;92531.56;;;13.75;100.00
10202;BME280;5143;42.584;23.164;2023-07-29T04:27:22;92527.78;;;13.83;100.00
10202;BME280;5143;42.584;23.164;2023-07-29T04:29:48;92531.25;;;13.89;100.00
10202;BME280;5143;42.584;23.164;2023-07-29T04:32:16;92526.00;;;13.97;100.00
10202;BME280;5143;42.584;23.164;2023-07-29T04:34:43;92530.69;;;14.07;100.00
10202;BME280;5143;42.584;23.164;2023-07-29T04:37:10;92523.91;;;14.19;100.00
10202;BME280;5143;42.584;23.164;2023-07-29T04:39:37;92532.13;;;14.71;100.00
10202;BME280;5143;42.584;23.164;2023-07-29T04:42:04;92530.56;;;16.57;100.00
10202;BME280;5143;42.584;23.164;2023-07-29T04:44:31;92543.00;;;19.23;100.00
10202;BME280;5143;42.584;23.164;2023-07-29T04:46:58;92555.31;;;21.63;100.00
10202;BME280;5143;42.584;23.164;2023-07-29T04:49:26;92559.25;;;23.71;78.13
10202;BME280;5143;42.584;23.164;2023-07-29T04:51:53;92559.66;;;25.71;63.90
10202;BME280;5143;42.584;23.164;2023-07-29T04:54:19;92563.84;;;27.48;56.11
10202;BME280;5143;42.584;23.164;2023-07-29T04:56:47;92594.31;;;28.94;49.66
10202;BME280;5143;42.584;23.164;2023-07-29T04:59:13;92586.72;;;29.27;47.21
10202;BME280;5143;42.584;23.164;2023-07-29T05:01:40;92598.03;;;30.16;44.70
10202;BME280;5143;42.584;23.164;2023-07-29T05:04:08;92598.78;;;30.86;41.90
10202;BME280;5143;42.584;23.164;2023-07-29T05:06:36;92593.50;;;31.64;40.23
10202;BME280;5143;42.584;23.164;2023-07-29T05:09:13;92615.56;;;32.18;39.48
10202;BME280;5143;42.584;23.164;2023-07-29T05:11:40;92620.72;;;32.60;37.84
10202;BME280;5143;42.584;23.164;2023-07-29T05:14:06;92620.41;;;32.67;36.27
10202;BME280;5143;42.584;23.164;2023-07-29T05:16:35;92625.19;;;32.51;36.39
10202;BME280;5143;42.584;23.164;2023-07-29T05:19:01;92618.47;;;31.81;37.37
10202;BME280;5143;42.584;23.164;2023-07-29T05:21:28;92628.91;;;32.67;36.37
10202;BME280;5143;42.584;23.164;2023-07-29T05:23:56;92626.56;;;34.31;34.40
10202;BME280;5143;42.584;23.164;2023-07-29T05:26:23;92632.91;;;35.39;32.93
10202;BME280;5143;42.584;23.164;2023-07-29T05:28:49;92630.66;;;34.89;32.17
10202;BME280;5143;42.584;23.164;2023-07-29T05:31:16;92629.22;;;32.74;34.27
10202;BME280;5143;42.584;23.164;2023-07-29T05:33:43;92625.38;;;33.21;33.83
10202;BME280;5143;42.584;23.164;2023-07-29T05:36:10;92637.38;;;33.63;33.61
10202;BME280;5143;42.584;23.164;2023-07-29T05:38:36;92637.31;;;34.49;32.84
10202;BME280;5143;42.584;23.164;2023-07-29T05:41:04;92641.44;;;35.73;31.49
10202;BME280;5143;42.584;23.164;2023-07-29T05:43:31;92646.00;;;36.86;30.16
10202;BME280;5143;42.584;23.164;2023-07-29T05:45:58;92647.69;;;36.93;29.26
10202;BME280;5143;42.584;23.164;2023-07-29T05:48:25;92652.56;;;36.90;28.90
10202;BME280;5143;42.584;23.164;2023-07-29T05:50:52;92652.94;;;36.45;29.87
10202;BME280;5143;42.584;23.164;2023-07-29T05:53:18;92644.75;;;33.97;31.88
10202;BME280;5143;42.584;23.164;2023-07-29T05:55:45;92650.59;;;34.01;32.55
10202;BME280;5143;42.584;23.164;2023-07-29T05:58:13;92647.81;;;34.30;31.40
10202;BME280;5143;42.584;23.164;2023-07-29T06:00:40;92649.91;;;35.06;31.24
10202;BME280;5143;42.584;23.164;2023-07-29T06:03:07;92650.63;;;36.22;29.21
10202;BME280;5143;42.584;23.164;2023-07-29T06:05:33;92657.81;;;36.07;29.11
10202;BME280;5143;42.584;23.164;2023-07-29T06:08:00;92656.28;;;36.75;29.17
10202;BME280;5143;42.584;23.164;2023-07-29T06:10:27;92651.75;;;36.88;26.78
10202;BME280;5143;42.584;23.164;2023-07-29T06:12:54;92642.84;;;35.07;28.99
10202;BME280;5143;42.584;23.164;2023-07-29T06:15:22;92645.31;;;34.99;29.66
10202;BME280;5143;42.584;23.164;2023-07-29T06:17:49;92644.00;;;36.00;28.39
10202;BME280;5143;42.584;23.164;2023-07-29T06:20:16;92639.38;;;34.32;30.19
10202;BME280;5143;42.584;23.164;2023-07-29T06:22:43;92624.56;;;35.43;28.50
10202;BME280;5143;42.584;23.164;2023-07-29T06:25:10;92638.84;;;36.12;27.76
10202;BME280;5143;42.584;23.164;2023-07-29T06:27:37;92641.91;;;37.48;27.02
10202;BME280;5143;42.584;23.164;2023-07-29T06:30:06;92640.69;;;37.74;25.54
10202;BME280;5143;42.584;23.164;2023-07-29T06:32:35;92646.81;;;38.73;25.32
10202;BME280;5143;42.584;23.164;2023-07-29T06:35:01;92638.97;;;39.21;25.06
10202;BME280;5143;42.584;23.164;2023-07-29T06:37:28;92639.34;;;38.62;24.17
10202;BME280;5143;42.584;23.164;2023-07-29T06:39:55;92638.56;;;38.38;25.45
10202;BME280;5143;42.584;23.164;2023-07-29T06:42:22;92641.28;;;37.91;24.35
10202;BME280;5143;42.584;23.164;2023-07-29T06:44:49;92626.00;;;36.84;25.95
10202;BME280;5143;42.584;23.164;2023-07-29T06:47:16;92622.28;;;36.79;26.47
10202;BME280;5143;42.584;23.164;2023-07-29T06:49:46;92625.72;;;36.95;26.31
10202;BME280;5143;42.584;23.164;2023-07-29T06:52:12;92635.03;;;37.55;25.95
10202;BME280;5143;42.584;23.164;2023-07-29T06:54:39;92640.03;;;37.76;25.31
10202;BME280;5143;42.584;23.164;2023-07-29T06:57:06;92644.91;;;37.52;25.68
10202;BME280;5143;42.584;23.164;2023-07-29T06:59:33;92633.34;;;35.49;28.64
10202;BME280;5143;42.584;23.164;2023-07-29T07:02:00;92632.09;;;35.37;28.72
10202;BME280;5143;42.584;23.164;2023-07-29T07:04:27;92630.56;;;35.03;29.41
10202;BME280;5143;42.584;23.164;2023-07-29T07:06:55;92622.66;;;36.52;28.36
10202;BME280;5143;42.584;23.164;2023-07-29T07:09:22;92628.81;;;36.64;27.44
10202;BME280;5143;42.584;23.164;2023-07-29T07:11:50;92628.53;;;36.76;28.08
10202;BME280;5143;42.584;23.164;2023-07-29T07:14:16;92622.16;;;37.14;27.70
10202;BME280;5143;42.584;23.164;2023-07-29T07:16:43;92623.38;;;36.90;27.37
10202;BME280;5143;42.584;23.164;2023-07-29T07:19:10;92620.16;;;36.25;28.58
10202;BME280;5143;42.584;23.164;2023-07-29T07:21:37;92616.09;;;36.12;29.09
10202;BME280;5143;42.584;23.164;2023-07-29T07:24:05;92612.81;;;36.37;28.50
10202;BME280;5143;42.584;23.164;2023-07-29T07:26:32;92619.19;;;37.10;27.89
10202;BME280;5143;42.584;23.164;2023-07-29T07:28:59;92605.25;;;36.26;28.30
10202;BME280;5143;42.584;23.164;2023-07-29T07:31:26;92611.16;;;36.67;27.93
10202;BME280;5143;42.584;23.164;2023-07-29T07:33:52;92607.16;;;36.02;29.09
10202;BME280;5143;42.584;23.164;2023-07-29T07:36:19;92603.56;;;36.54;28.86
10202;BME280;5143;42.584;23.164;2023-07-29T07:38:46;92611.38;;;37.11;27.29
10202;BME280;5143;42.584;23.164;2023-07-29T07:41:14;92601.25;;;36.68;28.85
10202;BME280;5143;42.584;23.164;2023-07-29T07:43:41;92606.56;;;36.58;28.26
10202;BME280;5143;42.584;23.164;2023-07-29T07:46:07;92607.75;;;37.08;27.43
10202;BME280;5143;42.584;23.164;2023-07-29T07:48:34;92600.91;;;36.78;27.81
10202;BME280;5143;42.584;23.164;2023-07-29T07:51:09;92597.91;;;36.74;27.76
10202;BME280;5143;42.584;23.164;2023-07-29T07:53:36;92601.81;;;37.22;28.05
10202;BME280;5143;42.584;23.164;2023-07-29T07:56:03;92599.44;;;36.04;28.57
10202;BME280;5143;42.584;23.164;2023-07-29T07:58:31;92593.91;;;36.26;28.44
10202;BME280;5143;42.584;23.164;2023-07-29T08:01:01;92601.72;;;37.20;27.33
10202;BME280;5143;42.584;23.164;2023-07-29T08:03:28;92595.75;;;36.37;27.14
10202;BME280;5143;42.584;23.164;2023-07-29T08:05:54;92590.19;;;36.04;28.93
10202;BME280;5143;42.584;23.164;2023-07-29T08:08:21;92591.06;;;35.73;28.97
10202;BME280;5143;42.584;23.164;2023-07-29T08:10:48;92591.69;;;34.89;27.43
10202;BME280;5143;42.584;23.164;2023-07-29T08:13:15;92599.88;;;34.36;27.38
10202;BME280;5143;42.584;23.164;2023-07-29T08:15:45;92599.19;;;34.83;27.19
10202;BME280;5143;42.584;23.164;2023-07-29T08:18:12;92605.16;;;34.13;27.49
10202;BME280;5143;42.584;23.164;2023-07-29T08:20:39;92602.19;;;34.56;27.44
10202;BME280;5143;42.584;23.164;2023-07-29T08:23:06;92606.00;;;34.02;28.40
10202;BME280;5143;42.584;23.164;2023-07-29T08:25:32;92609.91;;;34.08;28.19
10202;BME280;5143;42.584;23.164;2023-07-29T08:27:59;92603.78;;;33.28;30.81
10202;BME280;5143;42.584;23.164;2023-07-29T08:30:26;92602.97;;;34.11;27.97
10202;BME280;5143;42.584;23.164;2023-07-29T08:32:54;92607.16;;;34.10;29.27
10202;BME280;5143;42.584;23.164;2023-07-29T08:35:20;92595.84;;;33.11;29.09
10202;BME280;5143;42.584;23.164;2023-07-29T08:37:47;92593.22;;;32.22;30.69
10202;BME280;5143;42.584;23.164;2023-07-29T08:40:14;92587.66;;;31.98;31.47
10202;BME280;5143;42.584;23.164;2023-07-29T08:42:41;92595.47;;;31.13;32.59
10202;BME280;5143;42.584;23.164;2023-07-29T08:45:11;92586.78;;;31.09;32.25
10202;BME280;5143;42.584;23.164;2023-07-29T08:47:38;92582.63;;;30.98;32.99
10202;BME280;5143;42.584;23.164;2023-07-29T08:50:07;92585.84;;;30.46;33.12
10202;BME280;5143;42.584;23.164;2023-07-29T08:52:34;92573.03;;;29.99;34.99
10202;BME280;5143;42.584;23.164;2023-07-29T08:55:02;92569.03;;;29.36;34.67
10202;BME280;5143;42.584;23.164;2023-07-29T08:57:29;92560.66;;;29.27;37.09
10202;BME280;5143;42.584;23.164;2023-07-29T08:59:57;92562.13;;;28.85;37.24
10202;BME280;5143;42.584;23.164;2023-07-29T09:02:24;92558.19;;;29.00;36.96
10202;BME280;5143;42.584;23.164;2023-07-29T09:04:51;92555.34;;;29.21;37.42
10202;BME280;5143;42.584;23.164;2023-07-29T09:07:20;92558.72;;;29.62;37.51
10202;BME280;5143;42.584;23.164;2023-07-29T09:09:47;92559.44;;;29.62;35.80
10202;BME280;5143;42.584;23.164;2023-07-29T09:12:14;92563.16;;;29.76;35.76
10202;BME280;5143;42.584;23.164;2023-07-29T09:14:41;92546.06;;;29.84;36.74
10202;BME280;5143;42.584;23.164;2023-07-29T09:17:08;92551.38;;;30.01;37.00
10202;BME280;5143;42.584;23.164;2023-07-29T09:19:36;92553.06;;;29.83;36.81
10202;BME280;5143;42.584;23.164;2023-07-29T09:22:03;92552.25;;;29.71;37.08
10202;BME280;5143;42.584;23.164;2023-07-29T09:24:31;92555.16;;;29.94;35.38
10202;BME280;5143;42.584;23.164;2023-07-29T09:26:59;92561.50;;;29.95;36.05
10202;BME280;5143;42.584;23.164;2023-07-29T09:29:28;92545.84;;;29.92;35.40
10202;BME280;5143;42.584;23.164;2023-07-29T09:32:17;92549.63;;;29.52;36.13
10202;BME280;5143;42.584;23.164;2023-07-29T09:34:44;92550.56;;;29.77;35.45
10202;BME280;5143;42.584;23.164;2023-07-29T09:37:15;92545.53;;;29.76;34.23
10202;BME280;5143;42.584;23.164;2023-07-29T09:39:45;92541.56;;;29.91;35.49
10202;BME280;5143;42.584;23.164;2023-07-29T09:42:17;92539.00;;;29.83;34.45
10202;BME280;5143;42.584;23.164;2023-07-29T09:44:44;92543.81;;;29.71;35.30
10202;BME280;5143;42.584;23.164;2023-07-29T09:47:19;92532.03;;;29.51;34.50
10202;BME280;5143;42.584;23.164;2023-07-29T09:49:45;92535.19;;;29.46;34.49
10202;BME280;5143;42.584;23.164;2023-07-29T09:52:14;92535.28;;;29.36;34.81
10202;BME280;5143;42.584;23.164;2023-07-29T09:54:42;92530.53;;;29.50;35.63
10202;BME280;5143;42.584;23.164;2023-07-29T09:57:13;92533.59;;;29.87;36.74
10202;BME280;5143;42.584;23.164;2023-07-29T09:59:40;92530.81;;;29.99;35.17
10202;BME280;5143;42.584;23.164;2023-07-29T10:02:10;92520.16;;;30.09;34.66
10202;BME280;5143;42.584;23.164;2023-07-29T10:04:40;92528.97;;;30.03;33.17
10202;BME280;5143;42.584;23.164;2023-07-29T10:07:08;92528.47;;;30.30;32.93
10202;BME280;5143;42.584;23.164;2023-07-29T10:09:36;92525.09;;;29.64;32.68
10202;BME280;5143;42.584;23.164;2023-07-29T10:12:06;92527.16;;;29.75;33.13
10202;BME280;5143;42.584;23.164;2023-07-29T10:14:35;92514.69;;;29.66;32.26
10202;BME280;5143;42.584;23.164;2023-07-29T10:17:04;92511.88;;;29.66;32.52
10202;BME280;5143;42.584;23.164;2023-07-29T10:19:32;92510.72;;;29.48;32.50
10202;BME280;5143;42.584;23.164;2023-07-29T10:22:00;92515.84;;;29.85;30.74
10202;BME280;5143;42.584;23.164;2023-07-29T10:24:30;92508.50;;;29.79;31.20
10202;BME280;5143;42.584;23.164;2023-07-29T10:27:00;92499.44;;;29.81;31.75
10202;BME280;5143;42.584;23.164;2023-07-29T10:29:30;92512.28;;;29.84;32.36
10202;BME280;5143;42.584;23.164;2023-07-29T10:32:01;92507.66;;;30.12;31.63
10202;BME280;5143;42.584;23.164;2023-07-29T10:34:29;92505.19;;;29.95;31.19
10202;BME280;5143;42.584;23.164;2023-07-29T10:36:57;92492.59;;;29.96;31.45
10202;BME280;5143;42.584;23.164;2023-07-29T10:39:24;92493.72;;;30.02;30.78
10202;BME280;5143;42.584;23.164;2023-07-29T10:41:55;92489.31;;;29.88;31.41
10202;BME280;5143;42.584;23.164;2023-07-29T10:44:47;92491.84;;;30.30;31.43
10202;BME280;5143;42.584;23.164;2023-07-29T10:47:18;92490.28;;;30.38;32.21
10202;BME280;5143;42.584;23.164;2023-07-29T10:49:46;92491.50;;;30.24;30.89
10202;BME280;5143;42.584;23.164;2023-07-29T10:52:13;92479.50;;;30.23;31.43
10202;BME280;5143;42.584;23.164;2023-07-29T10:54:44;92483.94;;;30.38;30.19
10202;BME280;5143;42.584;23.164;2023-07-29T10:57:15;92481.91;;;30.75;29.59
10202;BME280;5143;42.584;23.164;2023-07-29T10:59:53;92470.97;;;30.81;30.77
10202;BME280;5143;42.584;23.164;2023-07-29T11:02:29;92481.88;;;30.87;30.53
10202;BME280;5143;42.584;23.164;2023-07-29T11:04:56;92476.44;;;30.54;29.25
10202;BME280;5143;42.584;23.164;2023-07-29T11:07:24;92474.72;;;30.49;30.29
10202;BME280;5143;42.584;23.164;2023-07-29T11:09:57;92472.16;;;30.53;31.86
10202;BME280;5143;42.584;23.164;2023-07-29T11:12:48;92468.53;;;30.76;31.91
10202;BME280;5143;42.584;23.164;2023-07-29T11:15:21;92471.19;;;30.85;30.13
10202;BME280;5143;42.584;23.164;2023-07-29T11:17:51;92468.69;;;30.55;31.70
10202;BME280;5143;42.584;23.164;2023-07-29T11:20:19;92472.69;;;30.75;31.16
10202;BME280;5143;42.584;23.164;2023-07-29T11:22:47;92467.78;;;30.87;30.40
10202;BME280;5143;42.584;23.164;2023-07-29T11:25:15;92462.47;;;30.56;30.58
10202;BME280;5143;42.584;23.164;2023-07-29T11:27:43;92465.00;;;30.75;29.83
10202;BME280;5143;42.584;23.164;2023-07-29T11:30:11;92460.56;;;30.84;30.78
10202;BME280;5143;42.584;23.164;2023-07-29T11:32:40;92452.25;;;30.74;30.61
10202;BME280;5143;42.584;23.164;2023-07-29T11:35:09;92465.69;;;30.87;31.18
10202;BME280;5143;42.584;23.164;2023-07-29T11:37:38;92469.00;;;30.84;30.98
10202;BME280;5143;42.584;23.164;2023-07-29T11:40:06;92465.59;;;30.74;29.98
10202;BME280;5143;42.584;23.164;2023-07-29T11:42:36;92461.91;;;30.71;29.87
10202;BME280;5143;42.584;23.164;2023-07-29T11:45:04;92462.75;;;30.37;29.64
10202;BME280;5143;42.584;23.164;2023-07-29T11:47:32;92450.38;;;30.19;29.65
10202;BME280;5143;42.584;23.164;2023-07-29T11:50:02;92446.56;;;30.26;30.07
10202;BME280;5143;42.584;23.164;2023-07-29T11:52:31;92451.09;;;30.54;31.34
10202;BME280;5143;42.584;23.164;2023-07-29T11:55:00;92448.06;;;30.75;31.03
10202;BME280;5143;42.584;23.164;2023-07-29T11:57:27;92457.78;;;31.09;30.36
10202;BME280;5143;42.584;23.164;2023-07-29T11:59:54;92451.63;;;31.13;30.09
10202;BME280;5143;42.584;23.164;2023-07-29T12:02:22;92445.59;;;30.93;29.07
10202;BME280;5143;42.584;23.164;2023-07-29T12:04:50;92440.59;;;31.17;29.44
10202;BME280;5143;42.584;23.164;2023-07-29T12:07:18;92433.22;;;31.23;29.41
10202;BME280;5143;42.584;23.164;2023-07-29T12:09:46;92437.88;;;31.19;29.66
10202;BME280;5143;42.584;23.164;2023-07-29T12:12:14;92427.47;;;31.35;29.96
10202;BME280;5143;42.584;23.164;2023-07-29T12:14:44;92432.97;;;31.19;30.66
10202;BME280;5143;42.584;23.164;2023-07-29T12:17:12;92434.78;;;31.01;29.73
10202;BME280;5143;42.584;23.164;2023-07-29T12:19:40;92437.38;;;30.85;28.23
10202;BME280;5143;42.584;23.164;2023-07-29T12:22:08;92432.00;;;30.78;29.80
10202;BME280;5143;42.584;23.164;2023-07-29T12:24:36;92433.91;;;30.62;29.25
10202;BME280;5143;42.584;23.164;2023-07-29T12:27:09;92438.44;;;30.55;28.70
10202;BME280;5143;42.584;23.164;2023-07-29T12:29:40;92419.78;;;30.73;29.08
10202;BME280;5143;42.584;23.164;2023-07-29T12:32:08;92431.56;;;31.07;28.32
10202;BME280;5143;42.584;23.164;2023-07-29T12:34:36;92424.91;;;31.14;29.12
10202;BME280;5143;42.584;23.164;2023-07-29T12:37:05;92430.78;;;31.18;28.32
10202;BME280;5143;42.584;23.164;2023-07-29T12:39:33;92425.28;;;31.33;31.40
10202;BME280;5143;42.584;23.164;2023-07-29T12:42:01;92422.19;;;31.16;28.36
10202;BME280;5143;42.584;23.164;2023-07-29T12:44:32;92426.47;;;31.17;28.69
10202;BME280;5143;42.584;23.164;2023-07-29T12:47:00;92424.97;;;31.52;28.76
10202;BME280;5143;42.584;23.164;2023-07-29T12:49:28;92424.16;;;31.64;28.63
10202;BME280;5143;42.584;23.164;2023-07-29T12:51:55;92426.69;;;31.46;27.69
10202;BME280;5143;42.584;23.164;2023-07-29T12:54:21;92425.00;;;31.16;28.39
10202;BME280;5143;42.584;23.164;2023-07-29T12:56:48;92430.38;;;31.23;29.27
10202;BME280;5143;42.584;23.164;2023-07-29T12:59:15;92422.97;;;31.30;28.83
10202;BME280;5143;42.584;23.164;2023-07-29T13:01:43;92429.06;;;31.38;29.02